createdAt,value
2023-02-06T00:01:48.928Z,87.75
2023-02-06T00:04:10.466Z,87.93
2023-02-06T00:06:32.301Z,88.13
2023-02-06T00:08:53.744Z,88.32
2023-02-06T00:11:16.915Z,87.91
2023-02-06T00:13:38.669Z,87.83
2023-02-06T00:16:00.385Z,87.83
2023-02-06T00:18:21.828Z,88.03
2023-02-06T00:20:43.267Z,88.14
2023-02-06T00:23:05.170Z,88.82
2023-02-06T00:25:26.601Z,88.20
2023-02-06T00:27:48.088Z,87.83
2023-02-06T00:30:09.900Z,87.82
2023-02-06T00:32:31.433Z,87.98
2023-02-06T00:34:52.858Z,87.53
2023-02-06T00:37:14.772Z,87.39
2023-02-06T00:39:36.247Z,87.44
2023-02-06T00:41:57.666Z,87.42
2023-02-06T00:44:19.149Z,87.74
2023-02-06T00:46:40.660Z,87.44
2023-02-06T00:49:02.221Z,87.57
2023-02-06T00:51:23.676Z,87.39
2023-02-06T00:53:45.271Z,87.86
2023-02-06T00:56:06.868Z,87.00
2023-02-06T00:58:28.298Z,88.21
2023-02-06T01:00:49.902Z,88.30
2023-02-06T01:03:11.505Z,88.07
2023-02-06T01:05:33.049Z,87.74
2023-02-06T01:07:54.630Z,87.98
2023-02-06T01:10:16.382Z,87.44
2023-02-06T01:12:37.901Z,87.49
2023-02-06T01:14:59.418Z,87.93
2023-02-06T01:17:20.870Z,88.41
2023-02-06T01:19:42.311Z,88.16
2023-02-06T01:22:04.141Z,88.26
2023-02-06T01:24:25.575Z,87.74
2023-02-06T01:26:46.993Z,87.43
2023-02-06T01:29:08.433Z,87.49
2023-02-06T01:31:31.171Z,87.64
2023-02-06T01:33:52.844Z,87.73
2023-02-06T01:36:14.817Z,89.19
2023-02-06T01:38:36.391Z,89.28
2023-02-06T01:40:59.416Z,88.58
2023-02-06T01:43:20.882Z,89.63
2023-02-06T01:45:44.083Z,90.36
2023-02-06T01:48:10.341Z,90.09
2023-02-06T01:50:34.061Z,90.12
2023-02-06T01:52:55.739Z,91.61
2023-02-06T01:55:17.711Z,92.34
2023-02-06T01:57:40.258Z,91.28
2023-02-06T02:00:07.520Z,92.10
2023-02-06T02:02:29.526Z,91.49
2023-02-06T02:04:51.065Z,90.93
2023-02-06T02:07:28.712Z,91.01
2023-02-06T02:09:50.172Z,90.92
2023-02-06T02:12:11.878Z,91.19
2023-02-06T02:14:33.960Z,90.55
2023-02-06T02:17:20.391Z,90.62
2023-02-06T02:20:11.095Z,90.36
2023-02-06T02:22:55.169Z,90.13
2023-02-06T02:25:22.290Z,89.92
2023-02-06T02:28:05.757Z,89.80
2023-02-06T02:30:59.339Z,89.82
2023-02-06T02:33:27.025Z,89.47
2023-02-06T02:35:59.984Z,89.56
2023-02-06T02:38:50.567Z,89.54
2023-02-06T02:41:27.100Z,89.59
2023-02-06T02:44:10.958Z,89.06
2023-02-06T02:46:40.352Z,89.36
2023-02-06T02:49:10.844Z,89.40
2023-02-06T02:51:33.996Z,88.99
2023-02-06T02:53:58.548Z,88.85
2023-02-06T02:56:23.080Z,88.91
2023-02-06T02:58:47.878Z,88.58
2023-02-06T03:01:14.112Z,89.09
2023-02-06T03:03:38.716Z,89.66
2023-02-06T03:06:30.580Z,91.51
2023-02-06T03:09:13.044Z,91.44
2023-02-06T03:11:41.324Z,90.71
2023-02-06T03:14:05.505Z,89.90
2023-02-06T03:16:35.412Z,90.08
2023-02-06T03:19:14.440Z,90.36
2023-02-06T03:21:38.014Z,91.25
2023-02-06T03:24:03.548Z,91.86
2023-02-06T03:26:28.742Z,91.75
2023-02-06T03:28:55.194Z,91.18
2023-02-06T03:31:23.679Z,90.80
2023-02-06T03:33:54.575Z,90.65
2023-02-06T03:36:18.385Z,90.56
2023-02-06T03:38:40.036Z,90.62
2023-02-06T03:41:02.036Z,91.05
2023-02-06T03:43:26.138Z,91.03
2023-02-06T03:45:52.130Z,91.11
2023-02-06T03:48:42.113Z,92.98
2023-02-06T03:51:12.271Z,91.93
2023-02-06T03:53:35.251Z,94.02
2023-02-06T03:56:02.214Z,92.55
2023-02-06T03:58:24.698Z,91.90
2023-02-06T04:00:48.028Z,92.19
2023-02-06T04:03:11.045Z,92.20
2023-02-06T04:05:32.597Z,91.75
2023-02-06T04:07:56.511Z,91.89
2023-02-06T04:10:18.525Z,92.24
2023-02-06T04:12:40.040Z,92.01
2023-02-06T04:15:01.644Z,91.45
2023-02-06T04:17:40.763Z,91.43
2023-02-06T04:20:06.430Z,91.25
2023-02-06T04:22:27.872Z,91.40
2023-02-06T04:24:49.906Z,90.95
2023-02-06T04:27:14.634Z,90.80
2023-02-06T04:29:36.142Z,90.32
2023-02-06T04:32:02.149Z,90.87
2023-02-06T04:34:23.726Z,91.46
2023-02-06T04:36:45.157Z,90.93
2023-02-06T04:39:07.344Z,91.59
2023-02-06T04:41:28.823Z,91.82
2023-02-06T04:43:50.271Z,91.53
2023-02-06T04:46:11.742Z,91.52
2023-02-06T04:48:36.240Z,91.78
2023-02-06T04:50:57.782Z,91.52
2023-02-06T04:53:19.285Z,91.20
2023-02-06T04:55:40.791Z,91.36
2023-02-06T04:58:02.258Z,90.69
2023-02-06T05:00:23.887Z,90.82
2023-02-06T05:02:45.373Z,90.91
2023-02-06T05:05:08.474Z,92.63
2023-02-06T05:07:29.985Z,92.36
2023-02-06T05:09:51.424Z,92.91
2023-02-06T05:12:14.338Z,93.65
2023-02-06T05:14:35.861Z,93.37
2023-02-06T05:16:57.282Z,93.61
2023-02-06T05:19:18.754Z,93.24
2023-02-06T05:21:40.382Z,93.55
2023-02-06T05:24:01.840Z,93.05
2023-02-06T05:26:23.604Z,92.81
2023-02-06T05:28:45.096Z,92.32
2023-02-06T05:31:07.006Z,92.32
2023-02-06T05:33:29.201Z,92.60
2023-02-06T05:35:50.645Z,92.37
2023-02-06T05:38:12.156Z,92.28
2023-02-06T05:40:33.611Z,92.01
2023-02-06T05:42:55.046Z,91.90
2023-02-06T05:45:16.634Z,91.65
2023-02-06T05:47:38.056Z,91.66
2023-02-06T05:49:59.507Z,91.83
2023-02-06T05:52:20.960Z,93.02
2023-02-06T05:54:42.444Z,92.18
2023-02-06T05:57:04.292Z,92.16
2023-02-06T05:59:25.979Z,92.72
2023-02-06T06:01:47.433Z,93.17
2023-02-06T06:04:09.032Z,92.30
2023-02-06T06:06:30.561Z,91.88
2023-02-06T06:08:51.984Z,92.33
2023-02-06T06:11:14.110Z,92.14
2023-02-06T06:13:35.596Z,92.51
2023-02-06T06:15:57.119Z,92.95
2023-02-06T06:18:19.711Z,93.41
2023-02-06T06:20:41.963Z,93.06
2023-02-06T06:23:03.391Z,93.75
2023-02-06T06:25:24.850Z,94.00
2023-02-06T06:27:46.480Z,94.47
2023-02-06T06:30:08.988Z,94.96
2023-02-06T06:32:30.422Z,95.68
2023-02-06T06:34:51.833Z,96.90
2023-02-06T06:37:13.299Z,97.87
2023-02-06T06:39:34.722Z,98.19
2023-02-06T06:41:56.172Z,98.01
2023-02-06T06:44:17.709Z,98.82
2023-02-06T06:46:39.166Z,98.61
2023-02-06T06:49:01.481Z,98.01
2023-02-06T06:51:23.726Z,98.48
2023-02-06T06:53:45.141Z,98.24
2023-02-06T06:56:08.655Z,97.40
2023-02-06T06:58:30.091Z,97.70
2023-02-06T07:00:53.583Z,97.21
2023-02-06T07:03:15.099Z,96.41
2023-02-06T07:05:36.997Z,97.30
2023-02-06T07:07:58.717Z,97.42
2023-02-06T07:10:20.302Z,96.98
2023-02-06T07:12:41.852Z,96.57
2023-02-06T07:15:04.257Z,96.43
2023-02-06T07:17:26.689Z,95.89
2023-02-06T07:19:49.278Z,96.21
2023-02-06T07:22:10.729Z,95.61
2023-02-06T07:24:32.161Z,95.33
2023-02-06T07:26:53.681Z,95.35
2023-02-06T07:29:15.124Z,95.17
2023-02-06T07:31:36.659Z,94.56
2023-02-06T07:33:58.117Z,93.98
2023-02-06T07:36:19.641Z,93.95
2023-02-06T07:38:41.662Z,93.42
2023-02-06T07:41:03.559Z,93.30
2023-02-06T07:43:24.984Z,93.55
2023-02-06T07:45:46.528Z,93.67
2023-02-06T07:48:08.460Z,92.14
2023-02-06T07:50:30.077Z,93.09
2023-02-06T07:52:51.494Z,93.06
2023-02-06T07:55:12.929Z,92.86
2023-02-06T07:57:34.437Z,92.39
2023-02-06T07:59:55.978Z,92.25
2023-02-06T08:02:17.449Z,92.24
2023-02-06T08:04:38.967Z,92.04
2023-02-06T08:07:01.638Z,91.95
2023-02-06T08:09:23.058Z,91.20
2023-02-06T08:11:44.713Z,90.19
2023-02-06T08:14:06.215Z,90.57
2023-02-06T08:16:27.733Z,90.66
2023-02-06T08:18:49.563Z,89.16
2023-02-06T08:21:14.067Z,89.00
2023-02-06T08:23:35.571Z,88.68
2023-02-06T08:26:09.454Z,89.04
2023-02-06T08:28:32.247Z,90.50
2023-02-06T08:30:53.727Z,89.11
2023-02-06T08:33:15.244Z,88.67
2023-02-06T08:35:36.900Z,88.64
2023-02-06T08:37:58.532Z,88.97
2023-02-06T08:40:21.188Z,89.06
2023-02-06T08:42:42.712Z,89.17
2023-02-06T08:45:04.722Z,88.99
2023-02-06T08:47:26.208Z,87.45
2023-02-06T08:49:50.692Z,88.53
2023-02-06T08:52:12.224Z,87.94
2023-02-06T08:54:35.947Z,87.47
2023-02-06T08:57:01.003Z,88.06
2023-02-06T08:59:22.788Z,88.24
2023-02-06T09:01:45.691Z,88.86
2023-02-06T09:04:09.894Z,88.66
2023-02-06T09:06:31.378Z,89.08
2023-02-06T09:08:53.543Z,89.20
2023-02-06T09:11:17.465Z,89.38
2023-02-06T09:13:39.419Z,89.05
2023-02-06T09:16:00.971Z,90.05
2023-02-06T09:18:22.426Z,89.87
2023-02-06T09:20:46.075Z,90.43
2023-02-06T09:23:07.556Z,90.85
2023-02-06T09:25:28.975Z,89.74
2023-02-06T09:27:50.436Z,89.06
2023-02-06T09:30:13.843Z,89.23
2023-02-06T09:32:35.321Z,88.53
2023-02-06T09:34:56.869Z,90.08
2023-02-06T09:37:18.341Z,89.19
2023-02-06T09:39:39.827Z,89.13
2023-02-06T09:42:16.312Z,88.76
2023-02-06T09:44:46.196Z,87.84
2023-02-06T09:47:31.313Z,87.74
2023-02-06T09:49:58.588Z,86.67
2023-02-06T09:52:47.973Z,86.98
2023-02-06T09:55:32.593Z,86.58
2023-02-06T09:58:16.249Z,85.24
2023-02-06T10:00:56.928Z,83.44
2023-02-06T10:03:50.938Z,82.30
2023-02-06T10:06:27.102Z,80.78
2023-02-06T10:08:59.478Z,80.31
2023-02-06T10:11:37.258Z,79.98
2023-02-06T10:14:02.465Z,78.11
2023-02-06T10:16:33.011Z,78.51
2023-02-06T10:19:01.057Z,76.19
2023-02-06T10:21:25.184Z,76.03
2023-02-06T10:23:55.321Z,75.63
2023-02-06T10:26:18.395Z,73.65
2023-02-06T10:28:40.749Z,75.59
2023-02-06T10:31:13.901Z,75.38
2023-02-06T10:34:03.758Z,75.48
2023-02-06T10:36:40.107Z,74.71
2023-02-06T10:39:20.900Z,73.75
2023-02-06T10:42:14.637Z,75.09
2023-02-06T10:45:17.100Z,73.71
2023-02-06T10:47:50.823Z,73.39
2023-02-06T10:50:25.633Z,71.71
2023-02-06T10:52:48.151Z,70.55
2023-02-06T10:55:23.363Z,69.33
2023-02-06T10:57:47.280Z,71.28
2023-02-06T11:00:24.880Z,70.22
2023-02-06T11:03:06.164Z,72.19
2023-02-06T11:05:30.832Z,71.23
2023-02-06T11:07:55.330Z,70.20
2023-02-06T11:10:22.422Z,70.00
2023-02-06T11:12:49.341Z,70.23
2023-02-06T11:15:27.657Z,68.46
2023-02-06T11:17:51.445Z,67.99
2023-02-06T11:20:21.813Z,68.73
2023-02-06T11:22:52.381Z,68.40
2023-02-06T11:25:25.494Z,67.12
2023-02-06T11:27:47.296Z,64.97
2023-02-06T11:30:23.675Z,64.66
2023-02-06T11:32:59.047Z,64.75
2023-02-06T11:35:35.113Z,64.96
2023-02-06T11:38:07.989Z,63.51
2023-02-06T11:40:29.683Z,62.77
2023-02-06T11:43:06.856Z,63.42
2023-02-06T11:45:33.138Z,63.26
2023-02-06T11:47:54.667Z,64.62
2023-02-06T11:50:34.133Z,63.35
2023-02-06T11:53:25.109Z,64.46
2023-02-06T11:55:59.091Z,64.04
2023-02-06T11:58:24.716Z,64.37
2023-02-06T12:00:51.871Z,64.25
2023-02-06T12:03:55.180Z,63.61
2023-02-06T12:06:36.870Z,64.19
2023-02-06T12:09:05.570Z,62.49
2023-02-06T12:11:32.940Z,62.71
2023-02-06T12:14:04.921Z,62.66
2023-02-06T12:16:27.718Z,63.08
2023-02-06T12:18:54.028Z,61.76
2023-02-06T12:21:24.579Z,61.23
2023-02-06T12:23:58.049Z,60.40
2023-02-06T12:26:23.110Z,59.38
2023-02-06T12:29:22.706Z,59.70
2023-02-06T12:31:59.281Z,62.52
2023-02-06T12:34:25.565Z,62.01
2023-02-06T12:37:00.081Z,62.02
2023-02-06T12:39:23.153Z,63.57
2023-02-06T12:42:22.275Z,63.17
2023-02-06T12:44:53.710Z,61.77
2023-02-06T12:47:40.839Z,60.98
2023-02-06T12:50:15.302Z,62.37
2023-02-06T12:52:44.787Z,63.22
2023-02-06T12:55:12.293Z,64.11
2023-02-06T12:57:35.410Z,63.78
2023-02-06T13:00:15.407Z,63.38
2023-02-06T13:02:58.851Z,63.82
2023-02-06T13:05:22.730Z,62.53
2023-02-06T13:07:49.325Z,62.58
2023-02-06T13:10:20.971Z,61.86
2023-02-06T13:12:42.446Z,61.57
2023-02-06T13:15:07.208Z,61.44
2023-02-06T13:17:37.887Z,61.47
2023-02-06T13:20:07.187Z,62.08
2023-02-06T13:22:49.401Z,61.52
2023-02-06T13:25:40.305Z,62.07
2023-02-06T13:28:21.850Z,63.16
2023-02-06T13:30:43.405Z,63.81
2023-02-06T13:33:23.725Z,63.92
2023-02-06T13:36:01.115Z,64.27
2023-02-06T13:38:22.497Z,64.83
2023-02-06T13:40:44.014Z,64.28
2023-02-06T13:43:10.041Z,63.45
2023-02-06T13:45:41.645Z,65.26
2023-02-06T13:48:28.403Z,64.35
2023-02-06T13:51:28.072Z,65.11
2023-02-06T13:54:09.362Z,67.43
2023-02-06T13:57:00.756Z,67.67
2023-02-06T13:59:29.195Z,67.92
2023-02-06T14:01:51.531Z,68.52
2023-02-06T14:04:25.067Z,67.84
2023-02-06T14:07:02.250Z,67.55
2023-02-06T14:09:33.112Z,68.50
2023-02-06T14:12:33.038Z,70.04
2023-02-06T14:15:11.325Z,69.43
2023-02-06T14:18:03.512Z,70.02
2023-02-06T14:20:34.638Z,69.64
2023-02-06T14:23:27.287Z,71.18
2023-02-06T14:25:52.707Z,70.91
2023-02-06T14:28:26.793Z,71.52
2023-02-06T14:31:12.818Z,71.36
2023-02-06T14:33:43.126Z,73.24
2023-02-06T14:36:33.591Z,73.34
2023-02-06T14:39:04.333Z,74.42
2023-02-06T14:41:30.078Z,74.63
2023-02-06T14:43:51.737Z,75.10
2023-02-06T14:46:16.791Z,74.93
2023-02-06T14:48:49.534Z,76.00
2023-02-06T14:51:39.294Z,76.24
2023-02-06T14:54:06.712Z,77.16
2023-02-06T14:56:34.236Z,76.71
2023-02-06T14:58:56.230Z,77.72
2023-02-06T15:01:17.641Z,77.91
2023-02-06T15:03:40.234Z,78.18
2023-02-06T15:06:05.881Z,77.48
2023-02-06T15:08:27.349Z,77.79
2023-02-06T15:10:57.556Z,75.96
2023-02-06T15:13:24.205Z,76.80
2023-02-06T15:15:53.980Z,76.60
2023-02-06T15:18:17.939Z,74.33
2023-02-06T15:20:45.252Z,74.27
2023-02-06T15:23:18.046Z,74.09
2023-02-06T15:26:05.604Z,74.01
2023-02-06T15:28:30.973Z,75.73
2023-02-06T15:30:54.869Z,74.27
2023-02-06T15:33:22.678Z,73.77
2023-02-06T15:35:49.573Z,73.85
2023-02-06T15:38:14.258Z,74.04
2023-02-06T15:40:39.157Z,73.92
2023-02-06T15:43:02.949Z,74.80
2023-02-06T15:45:31.013Z,74.95
2023-02-06T15:47:54.248Z,74.93
2023-02-06T15:50:19.897Z,75.47
2023-02-06T15:52:43.025Z,75.29
2023-02-06T15:55:04.978Z,75.60
2023-02-06T15:57:31.461Z,76.04
2023-02-06T15:59:54.164Z,76.36
2023-02-06T16:02:33.170Z,75.32
2023-02-06T16:04:54.994Z,76.22
2023-02-06T16:07:19.785Z,76.32
2023-02-06T16:09:50.183Z,76.89
2023-02-06T16:12:16.432Z,78.37
2023-02-06T16:14:41.195Z,79.80
2023-02-06T16:17:05.487Z,80.07
2023-02-06T16:19:38.316Z,79.28
2023-02-06T16:22:15.213Z,79.99
2023-02-06T16:24:36.880Z,80.50
2023-02-06T16:27:08.390Z,80.23
2023-02-06T16:29:32.497Z,80.35
2023-02-06T16:32:18.086Z,81.54
2023-02-06T16:34:43.827Z,81.74
2023-02-06T16:37:12.010Z,81.95
2023-02-06T16:39:33.426Z,82.39
2023-02-06T16:41:54.934Z,82.19
2023-02-06T16:44:17.136Z,81.63
2023-02-06T16:46:38.974Z,82.07
2023-02-06T16:49:00.484Z,83.20
2023-02-06T16:51:25.737Z,82.93
2023-02-06T16:53:48.610Z,82.50
2023-02-06T16:56:12.925Z,82.55
2023-02-06T16:58:36.014Z,82.79
2023-02-06T17:00:58.074Z,80.96
2023-02-06T17:03:19.576Z,81.63
2023-02-06T17:05:41.696Z,82.05
2023-02-06T17:08:04.009Z,81.80
2023-02-06T17:10:26.414Z,81.65
2023-02-06T17:12:48.290Z,81.73
2023-02-06T17:15:10.357Z,82.10
2023-02-06T17:17:32.126Z,81.83
2023-02-06T17:19:53.910Z,82.20
2023-02-06T17:22:15.689Z,81.75
2023-02-06T17:24:38.443Z,82.77
2023-02-06T17:27:01.539Z,81.02
2023-02-06T17:29:22.970Z,81.23
2023-02-06T17:31:44.417Z,81.14
2023-02-06T17:34:06.251Z,81.02
2023-02-06T17:36:32.405Z,81.14
2023-02-06T17:38:53.857Z,81.76
2023-02-06T17:41:15.279Z,81.95
2023-02-06T17:43:37.496Z,82.16
2023-02-06T17:45:59.066Z,82.15
2023-02-06T17:48:20.596Z,82.05
2023-02-06T17:50:42.416Z,83.03
2023-02-06T17:53:05.907Z,83.26
2023-02-06T17:55:28.347Z,82.93
2023-02-06T17:57:49.971Z,83.03
2023-02-06T18:00:14.711Z,83.42
2023-02-06T18:02:36.761Z,82.96
2023-02-06T18:04:59.903Z,82.37
2023-02-06T18:07:21.642Z,83.09
2023-02-06T18:09:43.129Z,83.89
2023-02-06T18:12:04.718Z,83.99
2023-02-06T18:14:26.311Z,83.47
2023-02-06T18:16:47.951Z,83.42
2023-02-06T18:19:10.493Z,83.03
2023-02-06T18:21:31.967Z,82.88
2023-02-06T18:23:54.365Z,81.01
2023-02-06T18:26:16.275Z,80.87
2023-02-06T18:28:39.325Z,80.78
2023-02-06T18:31:02.197Z,80.66
2023-02-06T18:33:23.925Z,79.84
2023-02-06T18:35:46.575Z,81.13
2023-02-06T18:38:09.959Z,80.19
2023-02-06T18:40:32.940Z,79.63
2023-02-06T18:42:54.696Z,79.96
2023-02-06T18:45:17.022Z,79.87
2023-02-06T18:47:40.049Z,78.49
2023-02-06T18:50:01.631Z,77.23
2023-02-06T18:52:23.219Z,77.21
2023-02-06T18:54:45.138Z,77.92
2023-02-06T18:57:07.058Z,76.93
2023-02-06T18:59:28.655Z,79.22
2023-02-06T19:01:51.957Z,76.67
2023-02-06T19:04:13.784Z,77.37
2023-02-06T19:06:36.609Z,77.91
2023-02-06T19:08:59.018Z,77.87
2023-02-06T19:11:20.456Z,77.46
2023-02-06T19:13:42.779Z,79.04
2023-02-06T19:16:12.082Z,80.75
2023-02-06T19:18:38.691Z,80.98
2023-02-06T19:21:06.491Z,81.27
2023-02-06T19:23:27.968Z,81.50
2023-02-06T19:25:49.379Z,80.20
2023-02-06T19:28:10.876Z,80.52
2023-02-06T19:30:32.439Z,80.47
2023-02-06T19:32:53.942Z,80.58
2023-02-06T19:35:17.195Z,81.86
2023-02-06T19:37:38.787Z,84.11
2023-02-06T19:40:00.246Z,83.72
2023-02-06T19:42:21.671Z,83.37
2023-02-06T19:44:43.470Z,81.94
2023-02-06T19:47:05.034Z,81.12
2023-02-06T19:49:26.974Z,80.96
2023-02-06T19:51:49.012Z,80.59
2023-02-06T19:54:10.538Z,78.23
2023-02-06T19:56:38.318Z,77.41
2023-02-06T19:59:01.836Z,77.67
2023-02-06T20:01:24.508Z,76.64
2023-02-06T20:03:46.573Z,75.99
2023-02-06T20:06:10.847Z,76.97
2023-02-06T20:08:33.270Z,77.44
2023-02-06T20:10:55.512Z,76.31
2023-02-06T20:13:17.049Z,77.65
2023-02-06T20:15:39.163Z,78.54
2023-02-06T20:18:00.589Z,79.57
2023-02-06T20:20:22.119Z,80.08
2023-02-06T20:22:43.551Z,81.04
2023-02-06T20:25:05.335Z,81.75
2023-02-06T20:27:26.826Z,81.70
2023-02-06T20:29:48.274Z,81.17
2023-02-06T20:32:11.036Z,80.83
2023-02-06T20:34:33.392Z,81.18
2023-02-06T20:36:55.612Z,79.92
2023-02-06T20:39:17.704Z,79.08
2023-02-06T20:41:40.244Z,79.18
2023-02-06T20:44:02.354Z,78.50
2023-02-06T20:46:25.148Z,78.23
2023-02-06T20:48:52.069Z,77.19
2023-02-06T20:51:14.707Z,76.19
2023-02-06T20:53:36.169Z,77.47
2023-02-06T20:55:58.165Z,77.95
2023-02-06T20:58:20.306Z,79.75
2023-02-06T21:00:41.756Z,80.74
2023-02-06T21:03:03.803Z,81.19
2023-02-06T21:05:25.912Z,81.53
2023-02-06T21:07:47.393Z,80.97
2023-02-06T21:10:09.229Z,80.74
2023-02-06T21:12:30.680Z,79.81
2023-02-06T21:14:52.160Z,79.30
2023-02-06T21:17:13.593Z,79.95
2023-02-06T21:19:35.968Z,80.05
2023-02-06T21:21:57.468Z,80.31
2023-02-06T21:24:19.031Z,80.44
2023-02-06T21:26:40.550Z,80.74
2023-02-06T21:29:06.028Z,82.12
2023-02-06T21:31:38.133Z,81.23
2023-02-06T21:34:09.051Z,80.20
2023-02-06T21:36:31.620Z,81.04
2023-02-06T21:38:53.054Z,80.82
2023-02-06T21:41:17.901Z,80.35
2023-02-06T21:43:39.996Z,79.62
2023-02-06T21:46:02.377Z,78.97
2023-02-06T21:48:23.853Z,79.11
2023-02-06T21:50:45.375Z,79.45
2023-02-06T21:53:08.959Z,80.05
2023-02-06T21:55:32.501Z,79.97
2023-02-06T21:57:53.946Z,78.70
2023-02-06T22:00:15.787Z,78.72
2023-02-06T22:02:37.671Z,78.40
2023-02-06T22:05:00.226Z,79.60
2023-02-06T22:07:21.634Z,78.93
2023-02-06T22:09:43.298Z,79.72
2023-02-06T22:12:07.113Z,79.33
2023-02-06T22:14:28.685Z,78.94
2023-02-06T22:16:50.260Z,78.91
2023-02-06T22:19:11.807Z,78.64
2023-02-06T22:21:34.322Z,79.15
2023-02-06T22:23:58.407Z,79.73
2023-02-06T22:26:20.981Z,80.19
2023-02-06T22:28:43.504Z,80.87
2023-02-06T22:31:13.190Z,80.69
2023-02-06T22:33:35.142Z,80.91
2023-02-06T22:35:56.646Z,81.73
2023-02-06T22:38:18.122Z,81.75
2023-02-06T22:40:39.613Z,81.18
2023-02-06T22:43:01.055Z,80.92
2023-02-06T22:45:22.496Z,81.22
2023-02-06T22:47:43.948Z,81.05
2023-02-06T22:50:05.786Z,81.32
2023-02-06T22:52:46.051Z,80.98
2023-02-06T22:55:09.448Z,80.36
2023-02-06T22:57:30.975Z,80.60
2023-02-06T22:59:52.427Z,79.88
2023-02-06T23:02:13.933Z,80.51
2023-02-06T23:04:36.184Z,81.14
2023-02-06T23:06:57.757Z,81.08
2023-02-06T23:09:23.706Z,81.51
2023-02-06T23:11:45.621Z,81.83
2023-02-06T23:14:08.025Z,82.04
2023-02-06T23:16:31.680Z,80.77
2023-02-06T23:18:53.222Z,79.52
2023-02-06T23:21:16.277Z,79.34
2023-02-06T23:23:39.090Z,78.98
2023-02-06T23:26:00.671Z,78.05
2023-02-06T23:28:23.401Z,79.71
2023-02-06T23:30:44.896Z,79.57
2023-02-06T23:33:06.538Z,79.17
2023-02-06T23:35:28.024Z,79.56
2023-02-06T23:37:49.513Z,79.44
2023-02-06T23:40:11.128Z,79.47
2023-02-06T23:42:32.670Z,79.09
2023-02-06T23:44:54.884Z,79.57
2023-02-06T23:47:17.182Z,80.05
2023-02-06T23:49:38.608Z,80.15
2023-02-06T23:52:00.092Z,80.56
2023-02-06T23:54:21.571Z,79.49
2023-02-06T23:56:43.214Z,78.84
2023-02-06T23:59:05.358Z,78.46
